createdAt,value
2023-01-11T00:00:15.655Z,78.80
2023-01-11T00:02:45.832Z,71.27
2023-01-11T00:05:15.818Z,52.53
2023-01-11T00:07:46.598Z,74.17
2023-01-11T00:10:15.016Z,63.37
2023-01-11T00:12:44.629Z,70.40
2023-01-11T00:15:16.702Z,84.07
2023-01-11T00:17:45.172Z,85.27
2023-01-11T00:20:13.588Z,65.67
2023-01-11T00:22:41.995Z,64.63
2023-01-11T00:25:11.046Z,78.37
2023-01-11T00:27:39.407Z,77.13
2023-01-11T00:30:08.925Z,75.00
2023-01-11T00:32:38.596Z,70.70
2023-01-11T00:35:09.208Z,71.50
2023-01-11T00:37:37.852Z,78.67
2023-01-11T00:40:07.182Z,63.00
2023-01-11T00:42:52.728Z,78.80
2023-01-11T00:45:38.798Z,75.90
2023-01-11T00:48:10.846Z,71.33
2023-01-11T00:50:41.301Z,72.13
2023-01-11T00:53:12.227Z,105.00
2023-01-11T00:55:40.724Z,86.83
2023-01-11T00:58:09.161Z,59.17
2023-01-11T01:00:37.942Z,76.73
2023-01-11T01:03:06.324Z,82.90
2023-01-11T01:05:39.387Z,64.00
2023-01-11T01:08:08.095Z,75.70
2023-01-11T01:10:36.570Z,97.50
2023-01-11T01:13:22.099Z,73.87
2023-01-11T01:15:50.459Z,67.07
2023-01-11T01:18:20.723Z,59.07
2023-01-11T01:20:53.071Z,76.40
2023-01-11T01:23:21.389Z,55.57
2023-01-11T01:25:49.802Z,79.23
2023-01-11T01:28:18.963Z,71.30
2023-01-11T01:30:51.633Z,61.30
2023-01-11T01:33:20.123Z,67.83
2023-01-11T01:35:50.480Z,54.30
2023-01-11T01:38:20.329Z,80.70
2023-01-11T01:40:50.073Z,60.90
2023-01-11T01:43:19.574Z,61.50
2023-01-11T01:45:50.124Z,73.77
2023-01-11T01:48:23.228Z,75.40
2023-01-11T01:50:55.344Z,59.90
2023-01-11T01:53:31.893Z,114.97
2023-01-11T01:56:02.940Z,73.87
2023-01-11T01:58:34.990Z,76.07
2023-01-11T02:01:26.111Z,82.60
2023-01-11T02:03:56.152Z,78.77
2023-01-11T02:06:25.287Z,62.73
2023-01-11T02:09:03.394Z,68.73
2023-01-11T02:11:32.096Z,56.30
2023-01-11T02:14:02.285Z,61.80
2023-01-11T02:16:31.106Z,66.93
2023-01-11T02:19:00.905Z,68.07
2023-01-11T02:21:41.855Z,59.47
2023-01-11T02:24:48.179Z,60.23
2023-01-11T02:27:30.081Z,62.93
2023-01-11T02:30:14.424Z,64.23
2023-01-11T02:32:52.727Z,68.83
2023-01-11T02:35:33.351Z,66.63
2023-01-11T02:38:07.935Z,88.87
2023-01-11T02:40:45.419Z,66.97
2023-01-11T02:43:37.019Z,44.40
2023-01-11T02:46:13.282Z,78.53
2023-01-11T02:48:50.896Z,70.30
2023-01-11T02:51:24.721Z,86.07
2023-01-11T02:53:56.711Z,102.50
2023-01-11T02:56:28.857Z,77.23
2023-01-11T02:59:01.061Z,75.33
2023-01-11T03:01:31.192Z,136.60
2023-01-11T03:04:02.054Z,93.23
2023-01-11T03:06:36.521Z,58.30
2023-01-11T03:09:20.962Z,110.03
2023-01-11T03:12:17.212Z,145.70
2023-01-11T03:14:58.241Z,76.10
2023-01-11T03:17:43.742Z,59.20
2023-01-11T03:20:21.950Z,89.00
2023-01-11T03:23:05.195Z,81.13
2023-01-11T03:25:44.492Z,81.40
2023-01-11T03:28:20.331Z,84.70
2023-01-11T03:30:55.336Z,65.10
2023-01-11T03:33:34.065Z,98.00
2023-01-11T03:36:10.198Z,91.77
2023-01-11T03:38:42.410Z,85.83
2023-01-11T03:41:16.869Z,82.10
2023-01-11T03:43:49.600Z,71.80
2023-01-11T03:46:23.941Z,85.20
2023-01-11T03:48:57.970Z,78.00
2023-01-11T03:51:28.549Z,74.60
2023-01-11T03:54:01.034Z,62.50
2023-01-11T03:56:37.969Z,64.43
2023-01-11T03:59:06.796Z,88.13
2023-01-11T04:01:35.134Z,81.47
2023-01-11T04:04:05.074Z,63.97
2023-01-11T04:06:37.215Z,113.73
2023-01-11T04:09:08.791Z,49.27
2023-01-11T04:11:39.317Z,78.60
2023-01-11T04:14:07.856Z,81.03
2023-01-11T04:16:36.260Z,78.97
2023-01-11T04:19:06.123Z,66.67
2023-01-11T04:21:34.649Z,59.90
2023-01-11T04:24:03.091Z,58.57
2023-01-11T04:26:31.545Z,62.30
2023-01-11T04:28:59.992Z,60.57
2023-01-11T04:31:28.476Z,54.90
2023-01-11T04:33:56.899Z,47.23
2023-01-11T04:36:28.896Z,67.97
2023-01-11T04:38:57.328Z,58.07
2023-01-11T04:41:43.341Z,67.50
2023-01-11T04:44:11.668Z,80.10
2023-01-11T04:46:40.117Z,73.10
2023-01-11T04:49:08.577Z,58.93
2023-01-11T04:51:39.684Z,69.00
2023-01-11T04:54:07.987Z,69.70
2023-01-11T04:56:36.562Z,63.83
2023-01-11T04:59:05.077Z,74.73
2023-01-11T05:01:33.544Z,117.83
2023-01-11T05:04:01.996Z,65.63
2023-01-11T05:06:30.392Z,85.70
2023-01-11T05:09:00.279Z,61.70
2023-01-11T05:11:28.722Z,73.13
2023-01-11T05:14:00.066Z,84.37
2023-01-11T05:16:30.826Z,68.03
2023-01-11T05:19:00.640Z,70.07
2023-01-11T05:21:32.591Z,84.83
2023-01-11T05:24:04.684Z,68.07
2023-01-11T05:26:35.293Z,92.37
2023-01-11T05:29:08.296Z,95.63
2023-01-11T05:31:38.351Z,75.83
2023-01-11T05:34:08.112Z,90.13
2023-01-11T05:36:37.245Z,81.33
2023-01-11T05:39:09.486Z,67.67
2023-01-11T05:41:39.927Z,67.20
2023-01-11T05:44:29.698Z,72.43
2023-01-11T05:46:58.163Z,60.03
2023-01-11T05:49:29.085Z,73.67
2023-01-11T05:51:59.609Z,82.47
2023-01-11T05:54:29.616Z,72.43
2023-01-11T05:56:58.751Z,55.87
2023-01-11T05:59:31.934Z,69.73
2023-01-11T06:02:00.720Z,57.97
2023-01-11T06:04:29.569Z,63.03
2023-01-11T06:07:06.981Z,53.50
2023-01-11T06:09:36.934Z,55.23
2023-01-11T06:12:10.448Z,54.37
2023-01-11T06:14:40.562Z,54.27
2023-01-11T06:17:10.144Z,48.83
2023-01-11T06:19:38.596Z,49.60
2023-01-11T06:22:06.985Z,69.33
2023-01-11T06:24:36.911Z,68.73
2023-01-11T06:27:07.443Z,40.00
2023-01-11T06:29:35.905Z,51.67
2023-01-11T06:32:04.346Z,78.87
2023-01-11T06:34:32.767Z,48.07
2023-01-11T06:37:01.377Z,45.77
2023-01-11T06:39:29.782Z,46.17
2023-01-11T06:42:02.452Z,56.93
2023-01-11T06:44:30.964Z,67.37
2023-01-11T06:46:59.484Z,50.17
2023-01-11T06:49:27.854Z,60.50
2023-01-11T06:51:56.488Z,55.80
2023-01-11T06:54:25.911Z,42.43
2023-01-11T06:56:54.314Z,43.33
2023-01-11T06:59:24.348Z,46.10
2023-01-11T07:01:52.831Z,62.57
2023-01-11T07:04:21.744Z,45.47
2023-01-11T07:06:50.265Z,45.33
2023-01-11T07:09:18.851Z,56.70
2023-01-11T07:11:47.359Z,34.27
2023-01-11T07:14:22.194Z,49.13
2023-01-11T07:16:52.101Z,34.03
2023-01-11T07:19:21.676Z,36.13
2023-01-11T07:21:50.219Z,49.57
2023-01-11T07:24:23.128Z,60.90
2023-01-11T07:26:54.652Z,34.20
2023-01-11T07:29:25.306Z,35.90
2023-01-11T07:31:56.864Z,35.93
2023-01-11T07:34:30.427Z,34.13
2023-01-11T07:37:00.209Z,38.93
2023-01-11T07:39:42.255Z,37.67
2023-01-11T07:42:30.205Z,40.10
2023-01-11T07:44:58.821Z,31.67
2023-01-11T07:47:28.949Z,34.13
2023-01-11T07:49:57.468Z,44.77
2023-01-11T07:52:26.042Z,41.27
2023-01-11T07:54:57.116Z,58.40
2023-01-11T07:57:25.683Z,42.93
2023-01-11T07:59:55.453Z,40.20
2023-01-11T08:02:24.230Z,39.57
2023-01-11T08:04:56.856Z,37.27
2023-01-11T08:07:27.245Z,35.30
2023-01-11T08:09:59.988Z,36.50
2023-01-11T08:12:47.131Z,26.27
2023-01-11T08:15:17.845Z,32.70
2023-01-11T08:17:50.544Z,39.37
2023-01-11T08:20:22.151Z,27.30
2023-01-11T08:22:50.816Z,41.13
2023-01-11T08:25:19.454Z,24.13
2023-01-11T08:27:47.857Z,33.57
2023-01-11T08:30:19.346Z,31.20
2023-01-11T08:32:47.925Z,32.47
2023-01-11T08:35:16.727Z,27.60
2023-01-11T08:37:53.569Z,28.73
2023-01-11T08:40:24.340Z,33.43
2023-01-11T08:42:56.474Z,36.57
2023-01-11T08:45:31.778Z,32.07
2023-01-11T08:48:15.853Z,41.87
2023-01-11T08:50:56.546Z,29.70
2023-01-11T08:53:33.412Z,27.97
2023-01-11T08:56:03.042Z,25.90
2023-01-11T08:58:38.792Z,27.40
2023-01-11T09:01:16.984Z,27.07
2023-01-11T09:03:48.408Z,24.03
2023-01-11T09:06:20.224Z,25.63
2023-01-11T09:09:00.506Z,24.40
2023-01-11T09:11:49.269Z,26.67
2023-01-11T09:14:20.441Z,37.00
2023-01-11T09:16:51.097Z,23.53
2023-01-11T09:19:24.288Z,26.67
2023-01-11T09:21:53.391Z,32.47
2023-01-11T09:24:23.250Z,22.73
2023-01-11T09:26:51.650Z,27.60
2023-01-11T09:29:23.834Z,20.47
2023-01-11T09:31:56.533Z,25.47
2023-01-11T09:34:27.322Z,27.63
2023-01-11T09:36:59.743Z,25.93
2023-01-11T09:39:34.542Z,23.97
2023-01-11T09:42:35.558Z,24.90
2023-01-11T09:45:16.134Z,22.57
2023-01-11T09:47:51.729Z,25.80
2023-01-11T09:50:25.596Z,20.10
2023-01-11T09:52:58.040Z,18.27
2023-01-11T09:55:36.143Z,19.33
2023-01-11T09:58:32.891Z,21.67
2023-01-11T10:01:10.711Z,18.00
2023-01-11T10:04:06.376Z,21.23
2023-01-11T10:06:52.467Z,21.00
2023-01-11T10:18:26.622Z,24.23
2023-01-11T10:21:30.163Z,23.87
2023-01-11T10:24:03.790Z,27.57
2023-01-11T10:26:40.244Z,24.20
2023-01-11T10:29:38.789Z,24.83
2023-01-11T10:32:34.090Z,26.23
2023-01-11T10:35:40.845Z,18.60
2023-01-11T10:38:40.986Z,22.00
2023-01-11T10:41:22.377Z,26.13
2023-01-11T10:44:05.288Z,20.47
2023-01-11T10:46:39.947Z,21.57
2023-01-11T10:49:36.259Z,23.40
2023-01-11T10:52:18.337Z,24.70
2023-01-11T10:54:53.402Z,21.27
2023-01-11T10:57:29.889Z,21.97
2023-01-11T11:00:13.695Z,29.50
2023-01-11T11:03:27.475Z,27.50
2023-01-11T11:06:12.096Z,22.47
2023-01-11T11:08:54.545Z,29.53
2023-01-11T11:11:40.282Z,25.93
2023-01-11T11:14:15.805Z,23.13
2023-01-11T11:17:01.726Z,24.70
2023-01-11T11:19:33.995Z,23.63
2023-01-11T11:22:04.385Z,25.13
2023-01-11T11:24:38.827Z,26.20
2023-01-11T11:27:18.067Z,23.90
2023-01-11T11:29:52.806Z,25.37
2023-01-11T11:32:27.978Z,23.67
2023-01-11T11:34:56.788Z,23.00
2023-01-11T11:37:33.548Z,26.63
2023-01-11T11:40:03.788Z,28.07
2023-01-11T11:42:38.307Z,23.37
2023-01-11T11:45:18.316Z,23.60
2023-01-11T11:48:03.125Z,24.60
2023-01-11T11:50:44.138Z,27.57
2023-01-11T11:53:25.088Z,22.37
2023-01-11T11:55:54.526Z,25.47
2023-01-11T11:58:26.181Z,24.90
2023-01-11T12:00:56.398Z,22.33
2023-01-11T12:03:32.922Z,27.83
2023-01-11T12:06:07.525Z,22.67
2023-01-11T12:08:43.571Z,23.23
2023-01-11T12:11:21.017Z,21.73
2023-01-11T12:14:02.210Z,22.50
2023-01-11T12:16:39.558Z,21.60
2023-01-11T12:19:26.419Z,22.37
2023-01-11T12:21:55.405Z,26.40
2023-01-11T12:24:30.833Z,20.37
2023-01-11T12:27:10.035Z,20.93
2023-01-11T12:30:08.644Z,24.87
2023-01-11T12:33:08.085Z,21.67
2023-01-11T12:35:43.240Z,21.30
2023-01-11T12:38:39.451Z,21.73
2023-01-11T12:41:47.991Z,21.60
2023-01-11T12:44:36.149Z,20.87
2023-01-11T12:47:26.597Z,21.90
2023-01-11T12:50:06.486Z,19.83
2023-01-11T12:52:48.110Z,25.33
2023-01-11T12:55:33.361Z,22.60
2023-01-11T12:58:14.261Z,19.80
2023-01-11T13:01:22.128Z,23.03
2023-01-11T13:04:30.486Z,24.87
2023-01-11T13:07:10.937Z,21.60
2023-01-11T13:09:52.713Z,24.73
2023-01-11T13:12:28.266Z,21.77
2023-01-11T13:15:07.227Z,20.43
2023-01-11T13:17:56.159Z,19.80
2023-01-11T13:20:58.596Z,23.50
2023-01-11T13:23:34.511Z,21.57
2023-01-11T13:26:16.608Z,17.90
2023-01-11T13:28:55.346Z,20.50
2023-01-11T13:31:25.443Z,21.70
2023-01-11T13:33:59.823Z,22.47
2023-01-11T13:36:41.827Z,20.83
2023-01-11T13:39:22.318Z,20.63
2023-01-11T13:42:01.176Z,23.77
2023-01-11T13:44:42.576Z,23.20
2023-01-11T13:47:24.498Z,22.87
2023-01-11T13:50:02.950Z,25.00
2023-01-11T13:52:51.737Z,27.27
2023-01-11T13:55:33.494Z,19.63
2023-01-11T13:58:13.562Z,25.43
2023-01-11T14:01:00.997Z,21.47
2023-01-11T14:03:35.064Z,23.63
2023-01-11T14:06:21.936Z,21.70
2023-01-11T14:09:22.329Z,24.80
2023-01-11T14:12:02.875Z,25.87
2023-01-11T14:14:58.161Z,25.70
2023-01-11T14:17:44.197Z,28.57
2023-01-11T14:20:24.198Z,25.90
2023-01-11T14:23:06.865Z,29.03
2023-01-11T14:25:52.915Z,32.60
2023-01-11T14:28:41.530Z,31.27
2023-01-11T14:31:40.344Z,25.30
2023-01-11T14:35:00.025Z,36.23
2023-01-11T14:38:08.423Z,33.00
2023-01-11T14:40:56.865Z,33.00
2023-01-11T14:43:57.864Z,33.30
2023-01-11T14:47:02.182Z,30.97
2023-01-11T14:49:52.190Z,34.20
2023-01-11T14:52:38.862Z,33.37
2023-01-11T14:55:16.931Z,32.30
2023-01-11T14:58:03.069Z,32.67
2023-01-11T15:01:12.002Z,31.50
2023-01-11T15:03:58.527Z,30.77
2023-01-11T15:06:31.977Z,36.90
2023-01-11T15:09:04.036Z,30.37
2023-01-11T15:11:36.089Z,39.97
2023-01-11T15:14:28.357Z,33.80
2023-01-11T15:17:21.293Z,34.13
2023-01-11T15:19:53.407Z,35.40
2023-01-11T15:22:30.431Z,34.23
2023-01-11T15:25:21.605Z,30.50
2023-01-11T15:27:53.697Z,32.40
2023-01-11T15:30:41.685Z,37.33
2023-01-11T15:33:47.919Z,38.20
2023-01-11T15:36:21.531Z,33.90
2023-01-11T15:39:13.661Z,33.53
2023-01-11T15:42:12.534Z,33.97
2023-01-11T15:45:09.587Z,35.97
2023-01-11T15:48:07.995Z,39.13
2023-01-11T15:51:18.889Z,34.87
2023-01-11T15:54:31.326Z,32.53
2023-01-11T15:57:40.010Z,35.17
2023-01-11T16:00:48.060Z,29.53
2023-01-11T16:03:51.564Z,33.93
2023-01-11T16:06:29.206Z,27.87
2023-01-11T16:09:10.494Z,28.10
2023-01-11T16:11:48.986Z,28.47
2023-01-11T16:14:41.528Z,29.07
2023-01-11T16:17:14.278Z,29.90
2023-01-11T16:19:46.367Z,31.93
2023-01-11T16:22:19.761Z,25.53
2023-01-11T16:24:56.886Z,29.53
2023-01-11T16:27:28.618Z,28.67
2023-01-11T16:29:57.887Z,25.80
2023-01-11T16:32:32.630Z,28.77
2023-01-11T16:35:03.840Z,28.73
2023-01-11T16:37:38.142Z,28.67
2023-01-11T16:40:15.364Z,28.60
2023-01-11T16:42:49.740Z,26.90
2023-01-11T16:45:29.973Z,27.77
2023-01-11T16:48:08.473Z,25.87
2023-01-11T16:50:41.247Z,27.40
2023-01-11T16:53:16.616Z,31.00
2023-01-11T16:56:05.393Z,31.30
2023-01-11T16:58:37.885Z,28.87
2023-01-11T17:01:12.140Z,31.73
2023-01-11T17:03:52.384Z,28.63
2023-01-11T17:06:23.833Z,34.90
2023-01-11T17:08:57.449Z,30.97
2023-01-11T17:11:33.985Z,32.00
2023-01-11T17:14:39.852Z,31.30
2023-01-11T17:17:13.917Z,28.83
2023-01-11T17:19:50.122Z,25.87
2023-01-11T17:22:27.176Z,30.47
2023-01-11T17:24:58.114Z,29.57
2023-01-11T17:27:37.690Z,31.63
2023-01-11T17:30:17.157Z,26.80
2023-01-11T17:32:48.741Z,26.80
2023-01-11T17:35:21.473Z,30.27
2023-01-11T17:37:54.565Z,26.23
2023-01-11T17:40:25.418Z,29.50
2023-01-11T17:43:14.092Z,31.53
2023-01-11T17:45:44.366Z,31.97
2023-01-11T17:48:18.703Z,27.13
2023-01-11T17:50:54.592Z,29.40
2023-01-11T17:53:28.751Z,30.13
2023-01-11T17:56:15.822Z,30.03
2023-01-11T17:58:44.798Z,28.33
2023-01-11T18:01:31.626Z,27.25
2023-01-11T18:04:04.366Z,30.27
2023-01-11T18:06:41.355Z,29.70
2023-01-11T18:09:29.207Z,28.60
2023-01-11T18:12:19.863Z,30.17
2023-01-11T18:14:52.431Z,29.23
2023-01-11T18:17:39.368Z,27.60
2023-01-11T18:20:48.813Z,33.97
2023-01-11T18:23:29.326Z,29.53
2023-01-11T18:26:32.158Z,29.80
2023-01-11T18:29:06.846Z,30.07
2023-01-11T18:31:42.552Z,28.83
2023-01-11T18:34:20.216Z,31.03
2023-01-11T18:37:06.661Z,29.50
2023-01-11T18:39:42.897Z,29.23
2023-01-11T18:42:31.264Z,31.07
2023-01-11T18:45:30.425Z,30.17
2023-01-11T18:48:29.543Z,31.47
2023-01-11T18:51:09.007Z,30.00
2023-01-11T18:53:41.961Z,29.60
2023-01-11T18:56:26.986Z,33.78
2023-01-11T18:59:02.740Z,28.88
2023-01-11T19:02:01.623Z,37.33
2023-01-11T19:04:49.174Z,31.97
2023-01-11T19:11:06.994Z,34.57
2023-01-11T19:13:40.319Z,43.40
2023-01-11T19:16:27.755Z,36.50
2023-01-11T19:19:06.971Z,32.63
2023-01-11T19:21:49.814Z,29.30
2023-01-11T19:24:21.959Z,28.57
2023-01-11T19:26:51.217Z,30.03
2023-01-11T19:29:24.679Z,26.53
2023-01-11T19:31:56.986Z,26.00
2023-01-11T19:34:28.759Z,29.13
2023-01-11T19:36:59.569Z,30.07
2023-01-11T19:39:52.330Z,25.73
2023-01-11T19:42:30.897Z,29.97
2023-01-11T19:45:08.042Z,27.23
2023-01-11T19:47:39.804Z,26.87
2023-01-11T19:50:09.303Z,30.73
2023-01-11T19:52:49.015Z,29.13
2023-01-11T19:55:32.170Z,28.27
2023-01-11T19:58:11.582Z,27.87
2023-01-11T20:01:06.369Z,30.03
2023-01-11T20:03:45.020Z,28.17
2023-01-11T20:06:22.432Z,29.13
2023-01-11T20:08:52.591Z,29.40
2023-01-11T20:11:24.538Z,29.23
2023-01-11T20:14:07.848Z,28.37
2023-01-11T20:17:02.041Z,28.73
2023-01-11T20:19:44.544Z,30.80
2023-01-11T20:22:33.515Z,29.30
2023-01-11T20:25:33.490Z,30.83
2023-01-11T20:28:04.244Z,29.80
2023-01-11T20:30:32.896Z,35.13
2023-01-11T20:33:18.747Z,32.20
2023-01-11T20:35:54.231Z,39.33
2023-01-11T20:38:25.777Z,33.00
2023-01-11T20:40:56.859Z,37.77
2023-01-11T20:43:27.804Z,32.77
2023-01-11T20:46:12.482Z,32.23
2023-01-11T20:48:43.527Z,37.23
2023-01-11T20:51:15.176Z,34.40
2023-01-11T20:53:43.970Z,38.13
2023-01-11T20:56:12.509Z,41.50
2023-01-11T20:58:41.315Z,41.40
2023-01-11T21:01:11.883Z,32.17
2023-01-11T21:03:40.419Z,41.83
2023-01-11T21:06:13.609Z,32.57
2023-01-11T21:08:44.857Z,40.83
2023-01-11T21:11:15.817Z,41.60
2023-01-11T21:13:44.284Z,38.73
2023-01-11T21:16:15.100Z,41.90
2023-01-11T21:18:47.242Z,38.33
2023-01-11T21:21:19.009Z,43.80
2023-01-11T21:23:49.046Z,38.10
2023-01-11T21:26:19.152Z,36.37
2023-01-11T21:28:53.390Z,41.27
2023-01-11T21:31:22.648Z,35.57
2023-01-11T21:33:51.784Z,37.37
2023-01-11T21:36:25.090Z,40.50
2023-01-11T21:38:57.924Z,36.97
2023-01-11T21:41:42.342Z,39.83
2023-01-11T21:44:12.442Z,33.80
2023-01-11T21:46:41.302Z,34.93
2023-01-11T21:49:10.040Z,39.33
2023-01-11T21:51:39.436Z,41.60
2023-01-11T21:54:11.194Z,39.13
2023-01-11T21:56:41.956Z,38.90
2023-01-11T21:59:10.841Z,34.73
2023-01-11T22:01:39.832Z,39.43
2023-01-11T22:04:09.307Z,35.53
2023-01-11T22:06:39.846Z,40.07
2023-01-11T22:09:11.729Z,32.93
2023-01-11T22:11:40.936Z,34.80
2023-01-11T22:14:09.639Z,35.20
2023-01-11T22:16:38.696Z,32.73
2023-01-11T22:19:09.713Z,34.13
2023-01-11T22:21:38.878Z,37.10
2023-01-11T22:24:11.590Z,29.73
2023-01-11T22:26:40.671Z,31.38
2023-01-11T22:29:15.071Z,29.10
2023-01-11T22:31:47.600Z,32.43
2023-01-11T22:34:16.841Z,34.43
2023-01-11T22:36:46.285Z,31.80
2023-01-11T22:39:19.425Z,32.20
2023-01-11T22:41:49.089Z,33.67
2023-01-11T22:44:17.740Z,34.33
2023-01-11T22:46:46.562Z,32.50
2023-01-11T22:49:15.005Z,34.67
2023-01-11T22:51:44.530Z,33.63
2023-01-11T22:54:14.989Z,30.17
2023-01-11T22:56:44.863Z,31.77
2023-01-11T22:59:13.157Z,29.30
2023-01-11T23:01:42.909Z,32.95
2023-01-11T23:04:15.470Z,32.90
2023-01-11T23:06:44.491Z,34.30
2023-01-11T23:09:16.585Z,32.03
2023-01-11T23:12:04.230Z,36.72
2023-01-11T23:14:33.746Z,28.97
2023-01-11T23:17:05.270Z,36.28
2023-01-11T23:19:33.803Z,31.80
2023-01-11T23:22:02.390Z,32.60
2023-01-11T23:24:30.842Z,35.37
2023-01-11T23:27:00.803Z,32.30
2023-01-11T23:29:29.227Z,34.20
2023-01-11T23:31:57.808Z,35.10
2023-01-11T23:34:26.415Z,31.83
2023-01-11T23:36:54.915Z,31.85
2023-01-11T23:39:23.890Z,32.47
2023-01-11T23:42:09.526Z,32.72
2023-01-11T23:44:39.339Z,32.60
2023-01-11T23:47:21.740Z,33.45
2023-01-11T23:49:51.036Z,35.97
2023-01-11T23:52:20.635Z,35.93
2023-01-11T23:54:48.952Z,35.47
2023-01-11T23:57:18.336Z,36.10
2023-01-11T23:59:48.267Z,41.03
